Alma, Nebraska
Current Conditions -  °F | °C
As of 1:55 PM on Friday 24 Oct 2014 (Local Time) from KHDE Reporting Station
Clear Clear  
Wind Chill: 81°   Ceiling: Unl
Heat Index: 81°   Visibility: 10mi
Dew Point: 37°   Wind: 7mph
Humidity: 21%   Direction: 310°NW
Pressure: 29.97"   Gusts: NA
Location:  40.1°N, 99.36°W
Report Text: KHDE 241855Z AUTO 31006KT 10SM CLR 27/03 A2997 RMK AO2 T02710026
Loading
Personal Weather Stations






























Interactive Weather Map
Tropical Storm Tracking
New forecast layout! Learn more

10-Day Weather Forecast

Advertisements
Track Severe Weather on mobile